createdAt,value
2022-10-23T00:01:46.376Z,100522.28
2022-10-23T00:04:19.060Z,100526.59
2022-10-23T00:06:49.503Z,100521.31
2022-10-23T00:09:22.234Z,100522.22
2022-10-23T00:11:52.574Z,100521.28
2022-10-23T00:14:24.563Z,100526.44
2022-10-23T00:16:53.979Z,100528.22
2022-10-23T00:19:21.836Z,100533.41
2022-10-23T00:21:49.782Z,100531.56
2022-10-23T00:24:17.897Z,100533.28
2022-10-23T00:26:46.100Z,100527.91
2022-10-23T00:29:13.924Z,100527.78
2022-10-23T00:31:43.065Z,100520.72
2022-10-23T00:34:12.019Z,100520.69
2022-10-23T00:36:40.051Z,100517.16
2022-10-23T00:39:07.943Z,100516.31
2022-10-23T00:41:35.852Z,100522.38
2022-10-23T00:44:09.109Z,100520.56
2022-10-23T00:46:39.266Z,100515.31
2022-10-23T00:51:47.446Z,100517.00
2022-10-23T00:54:24.303Z,100517.84
2022-10-23T00:56:58.342Z,100515.34
2022-10-23T00:59:27.778Z,100519.72
2022-10-23T01:01:56.649Z,100515.53
2022-10-23T01:04:27.704Z,100535.63
2022-10-23T01:07:05.538Z,100535.75
2022-10-23T01:09:41.653Z,100538.31
2022-10-23T01:12:23.316Z,100533.19
2022-10-23T01:15:07.073Z,100527.91
2022-10-23T01:17:44.448Z,100523.38
2022-10-23T01:20:39.725Z,100517.06
2022-10-23T01:23:47.679Z,100520.47
2022-10-23T01:26:37.227Z,100516.88
2022-10-23T01:29:20.345Z,100509.97
2022-10-23T01:31:56.361Z,100518.69
2022-10-23T01:34:36.873Z,100498.78
2022-10-23T01:37:10.463Z,100500.66
2022-10-23T01:39:47.352Z,100505.97
2022-10-23T01:42:22.401Z,100506.81
2022-10-23T01:44:59.554Z,100515.66
2022-10-23T01:47:34.026Z,100501.75
2022-10-23T01:50:10.615Z,100506.19
2022-10-23T01:52:42.320Z,100494.00
2022-10-23T01:55:13.425Z,100496.56
2022-10-23T01:57:45.651Z,100502.63
2022-10-23T02:00:21.018Z,100496.53
2022-10-23T02:02:58.781Z,100496.47
2022-10-23T02:05:33.246Z,100486.91
2022-10-23T02:08:03.851Z,100484.19
2022-10-23T02:10:52.518Z,100482.44
2022-10-23T02:13:32.254Z,100473.72
2022-10-23T02:16:13.217Z,100478.84
2022-10-23T02:18:54.279Z,100467.56
2022-10-23T02:21:32.122Z,100470.19
2022-10-23T02:24:07.534Z,100460.47
2022-10-23T02:26:43.605Z,100457.94
2022-10-23T02:29:25.530Z,100456.06
2022-10-23T02:31:54.798Z,100457.75
2022-10-23T02:34:23.278Z,100455.19
2022-10-23T02:36:51.303Z,100443.94
2022-10-23T02:39:26.709Z,100435.31
2022-10-23T02:42:07.338Z,100435.31
2022-10-23T02:44:53.806Z,100432.56
2022-10-23T02:47:38.470Z,100434.34
2022-10-23T02:50:18.537Z,100428.19
2022-10-23T02:52:58.495Z,100425.31
2022-10-23T02:55:43.234Z,100423.47
2022-10-23T02:58:27.342Z,100432.88
2022-10-23T03:01:09.965Z,100431.94
2022-10-23T03:03:45.592Z,100417.28
2022-10-23T03:06:13.821Z,100420.78
2022-10-23T03:08:44.984Z,100416.53
2022-10-23T03:11:12.801Z,100411.34
2022-10-23T03:13:40.626Z,100415.59
2022-10-23T03:16:08.445Z,100413.84
2022-10-23T03:18:36.897Z,100415.53
2022-10-23T03:21:06.632Z,100422.47
2022-10-23T03:23:36.533Z,100425.13
2022-10-23T03:26:06.028Z,100417.41
2022-10-23T03:28:39.180Z,100422.72
2022-10-23T03:31:07.076Z,100417.56
2022-10-23T03:33:35.057Z,100413.19
2022-10-23T03:36:13.118Z,100419.22
2022-10-23T03:38:41.336Z,100414.09
2022-10-23T03:41:09.180Z,100414.19
2022-10-23T03:43:38.454Z,100403.00
2022-10-23T03:46:12.282Z,100402.97
2022-10-23T03:48:42.028Z,100405.53
2022-10-23T03:51:09.933Z,100396.78
2022-10-23T03:53:42.510Z,100395.94
2022-10-23T03:56:11.486Z,100396.84
2022-10-23T03:58:40.635Z,100399.53
2022-10-23T04:01:08.993Z,100396.19
2022-10-23T04:03:38.399Z,100397.84
2022-10-23T04:06:07.323Z,100383.00
2022-10-23T04:08:36.186Z,100378.41
2022-10-23T04:11:11.672Z,100378.44
2022-10-23T04:13:46.457Z,100370.59
2022-10-23T04:16:15.188Z,100375.81
2022-10-23T04:18:45.964Z,100375.72
2022-10-23T04:21:13.830Z,100371.28
2022-10-23T04:23:41.884Z,100377.53
2022-10-23T04:26:15.876Z,100374.06
2022-10-23T04:28:43.652Z,100366.97
2022-10-23T04:31:11.622Z,100366.91
2022-10-23T04:33:42.128Z,100368.44
2022-10-23T04:36:10.901Z,100365.72
2022-10-23T04:38:41.114Z,100370.09
2022-10-23T04:41:09.092Z,100363.16
2022-10-23T04:43:38.282Z,100370.09
2022-10-23T04:46:06.680Z,100366.66
2022-10-23T04:48:35.365Z,100366.59
2022-10-23T04:51:25.915Z,100363.09
2022-10-23T04:54:06.342Z,100369.84
2022-10-23T04:57:00.598Z,100353.53
2022-10-23T04:59:37.419Z,100358.88
2022-10-23T05:02:07.384Z,100349.34
2022-10-23T05:04:35.245Z,100346.75
2022-10-23T05:07:37.659Z,100342.41
2022-10-23T05:10:15.260Z,100333.81
2022-10-23T05:12:50.236Z,100326.78
2022-10-23T05:15:19.413Z,100329.25
2022-10-23T05:17:52.347Z,100336.00
2022-10-23T05:20:26.692Z,100346.19
2022-10-23T05:22:59.497Z,100340.84
2022-10-23T05:25:30.897Z,100333.88
2022-10-23T05:28:12.694Z,100341.31
2022-10-23T05:30:43.139Z,100337.00
2022-10-23T05:33:11.792Z,100332.78
2022-10-23T05:35:45.337Z,100331.94
2022-10-23T05:38:16.608Z,100319.94
2022-10-23T05:40:45.157Z,100320.03
2022-10-23T05:43:19.343Z,100314.13
2022-10-23T05:46:11.617Z,100316.16
2022-10-23T05:49:07.305Z,100316.25
2022-10-23T05:51:50.705Z,100323.31
2022-10-23T05:54:41.450Z,100319.00
2022-10-23T05:57:23.869Z,100321.53
2022-10-23T05:59:53.833Z,100315.56
2022-10-23T06:02:25.955Z,100318.13
2022-10-23T06:05:00.742Z,100313.03
2022-10-23T06:07:47.820Z,100314.78
2022-10-23T06:10:15.770Z,100301.84
2022-10-23T06:12:47.057Z,100295.91
2022-10-23T06:15:18.525Z,100303.75
2022-10-23T06:18:02.505Z,100297.72
2022-10-23T06:20:37.313Z,100299.56
2022-10-23T06:23:13.092Z,100294.44
2022-10-23T06:25:59.409Z,100295.41
2022-10-23T06:28:37.192Z,100291.19
2022-10-23T06:31:06.616Z,100290.31
2022-10-23T06:33:36.010Z,100293.91
2022-10-23T06:36:10.182Z,100296.41
2022-10-23T06:38:41.674Z,100298.19
2022-10-23T06:41:16.395Z,100286.06
2022-10-23T06:43:49.051Z,100276.66
2022-10-23T06:46:24.385Z,100260.16
2022-10-23T06:49:12.063Z,100265.41
2022-10-23T06:51:46.909Z,100262.75
2022-10-23T06:54:15.843Z,100271.44
2022-10-23T06:56:49.315Z,100267.81
2022-10-23T06:59:21.005Z,100262.69
2022-10-23T07:01:51.592Z,100274.00
2022-10-23T07:04:20.893Z,100284.41
2022-10-23T07:06:49.715Z,100282.50
2022-10-23T07:09:24.598Z,100284.09
2022-10-23T07:11:52.489Z,100277.13
2022-10-23T07:14:24.379Z,100279.78
2022-10-23T07:16:54.415Z,100278.88
2022-10-23T07:19:24.423Z,100282.38
2022-10-23T07:21:56.721Z,100289.38
2022-10-23T07:24:46.281Z,100288.69
2022-10-23T07:27:28.245Z,100279.34
2022-10-23T07:29:58.272Z,100275.88
2022-10-23T07:32:30.896Z,100265.56
2022-10-23T07:35:37.159Z,100263.81
2022-10-23T07:38:13.782Z,100262.09
2022-10-23T07:40:45.735Z,100267.31
2022-10-23T07:43:18.461Z,100265.72
2022-10-23T07:45:48.991Z,100271.13
2022-10-23T07:48:38.516Z,100274.72
2022-10-23T07:51:12.305Z,100270.50
2022-10-23T07:53:45.287Z,100261.88
2022-10-23T07:56:31.571Z,100259.28
2022-10-23T07:59:20.912Z,100252.47
2022-10-23T08:01:56.458Z,100254.31
2022-10-23T08:04:30.015Z,100242.91
2022-10-23T08:07:07.950Z,100245.50
2022-10-23T08:09:41.170Z,100238.47
2022-10-23T08:12:09.995Z,100249.75
2022-10-23T08:14:39.137Z,100251.66
2022-10-23T08:17:09.901Z,100257.66
2022-10-23T08:20:03.576Z,100249.75
2022-10-23T08:22:39.202Z,100248.25
2022-10-23T08:25:08.099Z,100249.19
2022-10-23T08:27:37.057Z,100238.88
2022-10-23T08:30:06.806Z,100234.56
2022-10-23T08:32:34.769Z,100237.22
2022-10-23T08:35:04.504Z,100233.72
2022-10-23T08:37:36.315Z,100234.56
2022-10-23T08:40:07.283Z,100238.03
2022-10-23T08:43:21.951Z,100229.34
2022-10-23T08:46:12.990Z,100236.22
2022-10-23T08:49:28.734Z,100221.53
2022-10-23T08:52:15.679Z,100214.63
2022-10-23T08:55:00.140Z,100218.94
2022-10-23T08:57:40.086Z,100210.31
2022-10-23T09:00:15.891Z,100214.53
2022-10-23T09:02:47.183Z,100201.59
2022-10-23T09:05:19.947Z,100199.94
2022-10-23T09:08:08.684Z,100201.75
2022-10-23T09:10:56.543Z,100204.47
2022-10-23T09:13:56.133Z,100200.97
2022-10-23T09:16:43.066Z,100189.63
2022-10-23T09:19:17.121Z,100182.72
2022-10-23T09:21:49.888Z,100174.06
2022-10-23T09:24:20.890Z,100181.03
2022-10-23T09:26:53.129Z,100177.56
2022-10-23T09:29:29.021Z,100178.44
2022-10-23T09:32:00.166Z,100169.75
2022-10-23T09:34:31.532Z,100170.59
2022-10-23T09:37:03.020Z,100158.44
2022-10-23T09:39:33.953Z,100154.06
2022-10-23T09:42:20.886Z,100163.59
2022-10-23T09:44:52.644Z,100160.13
2022-10-23T09:47:24.482Z,100159.25
2022-10-23T09:49:55.084Z,100161.84
2022-10-23T09:52:33.256Z,100143.50
2022-10-23T09:55:18.477Z,100138.28
2022-10-23T09:57:47.819Z,100140.81
2022-10-23T10:00:21.153Z,100129.50
2022-10-23T10:02:58.974Z,100128.59
2022-10-23T10:06:00.959Z,100138.13
2022-10-23T10:08:41.330Z,100128.50
2022-10-23T10:11:19.951Z,100131.06
2022-10-23T10:14:04.732Z,100129.34
2022-10-23T10:16:50.529Z,100129.31
2022-10-23T10:19:48.754Z,100135.38
2022-10-23T10:22:32.349Z,100128.41
2022-10-23T10:25:11.366Z,100122.25
2022-10-23T10:27:56.870Z,100129.16
2022-10-23T10:30:34.172Z,100131.75
2022-10-23T10:33:14.576Z,100136.06
2022-10-23T10:35:53.533Z,100117.59
2022-10-23T10:38:48.303Z,100113.09
2022-10-23T10:41:37.375Z,100103.41
2022-10-23T10:44:35.925Z,100106.81
2022-10-23T10:47:21.045Z,100099.66
2022-10-23T10:50:07.574Z,100083.91
2022-10-23T10:53:02.421Z,100069.13
2022-10-23T10:55:38.357Z,100068.22
2022-10-23T10:58:18.620Z,100059.41
2022-10-23T11:00:53.009Z,100061.97
2022-10-23T11:03:39.171Z,100058.38
2022-10-23T11:06:16.848Z,100054.91
2022-10-23T11:08:57.477Z,100061.78
2022-10-23T11:11:35.861Z,100041.69
2022-10-23T11:14:04.286Z,100038.94
2022-10-23T11:16:38.056Z,100038.94
2022-10-23T11:19:18.425Z,100030.22
2022-10-23T11:21:58.136Z,100026.66
2022-10-23T11:25:05.938Z,100014.34
2022-10-23T11:28:10.209Z,100003.81
2022-10-23T11:30:59.353Z,100002.13
2022-10-23T11:34:13.790Z,99999.25
2022-10-23T11:36:50.324Z,99992.25
2022-10-23T11:39:31.746Z,99987.84
2022-10-23T11:42:15.693Z,99983.28
2022-10-23T11:44:46.706Z,99971.94
2022-10-23T11:47:39.282Z,99969.41
2022-10-23T11:50:31.071Z,99960.53
2022-10-23T11:53:20.888Z,99953.41
2022-10-23T11:56:25.460Z,99944.63
2022-10-23T11:58:57.162Z,99936.13
2022-10-23T12:01:33.891Z,99922.88
2022-10-23T12:04:16.845Z,99919.47
2022-10-23T12:06:50.164Z,99913.16
2022-10-23T12:09:37.373Z,99905.91
2022-10-23T12:12:17.788Z,99906.56
2022-10-23T12:14:48.686Z,99919.34
2022-10-23T12:17:33.357Z,99917.50
2022-10-23T12:20:25.759Z,99916.59
2022-10-23T12:23:34.241Z,99912.25
2022-10-23T12:26:28.972Z,99913.06
2022-10-23T12:29:11.947Z,99901.50
2022-10-23T12:31:54.057Z,99899.69
2022-10-23T12:34:45.015Z,99893.56
2022-10-23T12:37:45.470Z,99885.81
2022-10-23T12:40:13.575Z,99889.28
2022-10-23T12:42:54.983Z,99898.97
2022-10-23T12:45:27.488Z,99888.28
2022-10-23T12:47:55.590Z,99875.97
2022-10-23T12:50:28.191Z,99869.91
2022-10-23T12:52:58.753Z,99862.84
2022-10-23T12:55:35.062Z,99854.88
2022-10-23T12:58:05.212Z,99838.88
2022-10-23T13:00:33.254Z,99819.75
2022-10-23T13:03:03.948Z,99811.53
2022-10-23T13:05:32.696Z,99816.06
2022-10-23T13:08:02.547Z,99813.53
2022-10-23T13:10:50.225Z,99801.09
2022-10-23T13:13:24.355Z,99799.25
2022-10-23T13:15:52.204Z,99792.13
2022-10-23T13:18:21.664Z,99794.59
2022-10-23T13:20:59.608Z,99793.78
2022-10-23T13:23:31.383Z,99789.19
2022-10-23T13:26:01.823Z,99776.84
2022-10-23T13:28:34.953Z,99777.53
2022-10-23T13:31:25.242Z,99770.00
2022-10-23T13:34:16.220Z,99757.31
2022-10-23T13:36:54.495Z,99762.53
2022-10-23T13:39:26.165Z,99755.50
2022-10-23T13:41:54.206Z,99751.88
2022-10-23T13:44:25.003Z,99748.00
2022-10-23T13:46:52.972Z,99749.47
2022-10-23T13:49:21.026Z,99738.75
2022-10-23T13:52:22.305Z,99739.09
2022-10-23T13:54:48.278Z,99740.63
2022-10-23T13:57:35.249Z,99740.00
2022-10-23T14:00:06.952Z,99750.94
2022-10-23T14:02:40.189Z,99737.88
2022-10-23T14:05:08.652Z,99731.53
2022-10-23T14:07:36.911Z,99730.47
2022-10-23T14:10:07.651Z,99733.75
2022-10-23T14:12:42.055Z,99730.47
2022-10-23T14:15:13.848Z,99733.75
2022-10-23T14:17:41.663Z,99740.00
2022-10-23T14:20:11.864Z,99732.09
2022-10-23T14:22:42.049Z,99726.09
2022-10-23T14:25:12.497Z,99729.59
2022-10-23T14:27:40.344Z,99728.91
2022-10-23T14:30:10.082Z,99727.88
2022-10-23T14:32:39.750Z,99717.53
2022-10-23T14:35:08.656Z,99726.25
2022-10-23T14:37:36.735Z,99712.94
2022-10-23T14:40:06.514Z,99706.03
2022-10-23T14:42:34.518Z,99705.13
2022-10-23T14:45:03.595Z,99702.41
2022-10-23T14:47:31.946Z,99696.25
2022-10-23T14:50:01.117Z,99693.59
2022-10-23T14:52:29.024Z,99694.66
2022-10-23T14:54:56.840Z,99682.75
2022-10-23T14:57:25.022Z,99678.41
2022-10-23T14:59:52.793Z,99675.97
2022-10-23T15:02:20.604Z,99676.06
2022-10-23T15:04:48.391Z,99669.94
2022-10-23T15:07:18.312Z,99666.47
2022-10-23T15:09:46.200Z,99669.31
2022-10-23T15:12:13.974Z,99661.50
2022-10-23T15:14:41.732Z,99654.19
2022-10-23T15:17:14.547Z,99647.31
2022-10-23T15:19:43.690Z,99644.97
2022-10-23T15:22:11.666Z,99637.28
2022-10-23T15:24:41.018Z,99637.38
2022-10-23T15:29:37.990Z,99638.50
2022-10-23T15:32:07.733Z,99645.47
2022-10-23T15:34:37.822Z,99643.69
2022-10-23T15:37:06.041Z,99635.91
2022-10-23T15:39:35.472Z,99635.06
2022-10-23T15:42:09.414Z,99629.75
2022-10-23T15:44:39.649Z,99622.09
2022-10-23T15:47:07.684Z,99610.94
2022-10-23T15:49:36.869Z,99614.50
2022-10-23T15:52:05.006Z,99620.72
2022-10-23T15:54:33.244Z,99621.66
2022-10-23T15:57:03.699Z,99620.84
2022-10-23T15:59:33.846Z,99613.16
2022-10-23T16:02:01.856Z,99613.03
2022-10-23T16:04:30.307Z,99616.63
2022-10-23T16:06:58.235Z,99625.28
2022-10-23T16:09:26.225Z,99651.47
2022-10-23T16:11:54.085Z,99653.06
2022-10-23T16:14:21.904Z,99653.94
2022-10-23T16:16:51.288Z,99644.09
2022-10-23T16:19:20.208Z,99650.16
2022-10-23T16:21:48.305Z,99642.22
2022-10-23T16:24:16.986Z,99635.25
2022-10-23T16:26:50.225Z,99641.53
2022-10-23T16:29:19.017Z,99633.91
2022-10-23T16:31:46.848Z,99627.97
2022-10-23T16:34:16.457Z,99615.00
2022-10-23T16:36:45.057Z,99625.72
2022-10-23T16:39:33.786Z,99628.41
2022-10-23T16:42:20.258Z,99621.47
2022-10-23T16:45:12.082Z,99628.25
2022-10-23T16:47:39.972Z,99630.84
2022-10-23T16:50:11.564Z,99626.38
2022-10-23T16:52:39.832Z,99618.44
2022-10-23T16:55:10.033Z,99635.94
2022-10-23T16:57:38.424Z,99651.63
2022-10-23T17:00:07.952Z,99644.69
2022-10-23T17:02:38.055Z,99642.91
2022-10-23T17:05:08.386Z,99649.16
2022-10-23T17:07:37.862Z,99653.72
2022-10-23T17:10:12.693Z,99657.31
2022-10-23T17:12:40.549Z,99660.19
2022-10-23T17:15:10.534Z,99669.97
2022-10-23T17:17:38.429Z,99666.72
2022-10-23T17:20:07.607Z,99684.41
2022-10-23T17:22:39.005Z,99695.03
2022-10-23T17:25:10.729Z,99695.97
2022-10-23T17:27:39.097Z,99704.22
2022-10-23T17:30:12.633Z,99705.91
2022-10-23T17:32:41.505Z,99725.53
2022-10-23T17:35:11.900Z,99721.31
2022-10-23T17:37:41.316Z,99744.22
2022-10-23T17:40:11.525Z,99753.06
2022-10-23T17:42:40.605Z,99749.75
2022-10-23T17:45:10.151Z,99743.00
2022-10-23T17:47:41.287Z,99723.19
2022-10-23T17:50:13.006Z,99705.88
2022-10-23T17:52:42.890Z,99675.38
2022-10-23T17:55:11.473Z,99674.59
2022-10-23T17:57:40.008Z,99652.94
2022-10-23T18:00:09.884Z,99604.31
2022-10-23T18:02:44.680Z,99581.84
2022-10-23T18:05:13.054Z,99619.34
2022-10-23T18:07:42.536Z,99621.97
2022-10-23T18:10:11.781Z,99639.50
2022-10-23T18:12:40.500Z,99629.03
2022-10-23T18:15:11.212Z,99637.84
2022-10-23T18:17:39.027Z,99650.06
2022-10-23T18:20:08.588Z,99650.94
2022-10-23T18:22:36.863Z,99645.75
2022-10-23T18:25:07.610Z,99644.03
2022-10-23T18:27:36.713Z,99652.69
2022-10-23T18:30:06.706Z,99635.28
2022-10-23T18:32:34.673Z,99636.97
2022-10-23T18:35:02.811Z,99648.34
2022-10-23T18:37:38.978Z,99640.44
2022-10-23T18:40:13.326Z,99622.06
2022-10-23T18:42:42.701Z,99631.69
2022-10-23T18:45:14.383Z,99636.00
2022-10-23T18:47:42.788Z,99652.53
2022-10-23T18:50:12.221Z,99658.72
2022-10-23T18:52:42.758Z,99662.19
2022-10-23T18:55:13.561Z,99661.41
2022-10-23T18:57:42.032Z,99653.59
2022-10-23T19:00:13.254Z,99659.72
2022-10-23T19:02:47.719Z,99668.50
2022-10-23T19:05:19.363Z,99658.09
2022-10-23T19:07:50.611Z,99659.75
2022-10-23T19:10:23.919Z,99649.34
2022-10-23T19:12:52.483Z,99638.91
2022-10-23T19:15:20.651Z,99640.69
2022-10-23T19:17:55.175Z,99650.28
2022-10-23T19:23:02.396Z,99626.78
2022-10-23T19:25:37.650Z,99623.25
2022-10-23T19:28:06.558Z,99623.41
2022-10-23T19:30:35.306Z,99626.97
2022-10-23T19:33:04.221Z,99627.81
2022-10-23T19:35:32.560Z,99617.31
2022-10-23T19:38:00.390Z,99620.88
2022-10-23T19:40:28.305Z,99626.88
2022-10-23T19:42:57.924Z,99629.50
2022-10-23T19:45:25.937Z,99625.28
2022-10-23T19:47:54.204Z,99606.13
2022-10-23T19:50:22.123Z,99598.38
2022-10-23T19:52:51.404Z,99592.34
2022-10-23T19:55:22.077Z,99585.41
2022-10-23T19:57:49.913Z,99595.81
2022-10-23T20:00:20.360Z,99592.19
2022-10-23T20:02:50.215Z,99600.94
2022-10-23T20:05:22.169Z,99597.53
2022-10-23T20:07:51.338Z,99590.59
2022-10-23T20:10:19.459Z,99587.19
2022-10-23T20:12:56.878Z,99599.34
2022-10-23T20:15:41.080Z,99605.50
2022-10-23T20:18:11.549Z,99606.31
2022-10-23T20:20:41.643Z,99595.94
2022-10-23T20:23:12.389Z,99595.94
2022-10-23T20:25:40.231Z,99592.44
2022-10-23T20:28:10.244Z,99591.63
2022-10-23T20:30:43.630Z,99592.47
2022-10-23T20:33:12.052Z,99599.41
2022-10-23T20:35:41.424Z,99586.34
2022-10-23T20:38:09.974Z,99594.97
2022-10-23T20:40:39.203Z,99601.84
2022-10-23T20:43:07.223Z,99603.53
2022-10-23T20:45:35.062Z,99600.84
2022-10-23T20:48:05.122Z,99604.38
2022-10-23T20:50:34.616Z,99607.81
2022-10-23T20:53:02.477Z,99600.81
2022-10-23T20:55:30.338Z,99614.59
2022-10-23T20:57:58.165Z,99602.41
2022-10-23T21:00:26.370Z,99606.88
2022-10-23T21:02:54.502Z,99640.00
2022-10-23T21:05:23.855Z,99649.56
2022-10-23T21:07:51.683Z,99672.25
2022-10-23T21:10:19.602Z,99676.53
2022-10-23T21:12:47.403Z,99688.59
2022-10-23T21:15:15.355Z,99690.47
2022-10-23T21:17:43.176Z,99703.50
2022-10-23T21:20:11.002Z,99714.00
2022-10-23T21:22:40.405Z,99706.28
2022-10-23T21:25:09.427Z,99695.03
2022-10-23T21:27:37.638Z,99694.13
2022-10-23T21:30:08.141Z,99684.75
2022-10-23T21:32:36.467Z,99682.09
2022-10-23T21:35:06.207Z,99663.88
2022-10-23T21:37:34.036Z,99677.03
2022-10-23T21:40:04.056Z,99686.47
2022-10-23T21:42:33.589Z,99672.59
2022-10-23T21:45:01.468Z,99677.78
2022-10-23T21:47:29.369Z,99679.50
2022-10-23T21:49:57.133Z,99672.56
2022-10-23T21:52:24.962Z,99676.97
2022-10-23T21:54:53.602Z,99675.22
2022-10-23T21:57:22.758Z,99681.41
2022-10-23T21:59:50.637Z,99679.72
2022-10-23T22:02:18.831Z,99695.44
2022-10-23T22:04:46.903Z,99684.97
2022-10-23T22:07:14.933Z,99698.09
2022-10-23T22:09:44.570Z,99694.66
2022-10-23T22:12:12.788Z,99697.28
2022-10-23T22:14:42.615Z,99699.03
2022-10-23T22:17:10.446Z,99688.53
2022-10-23T22:19:38.510Z,99698.94
2022-10-23T22:22:06.502Z,99694.59
2022-10-23T22:24:36.583Z,99687.69
2022-10-23T22:27:05.074Z,99690.31
2022-10-23T22:29:32.871Z,99686.06
2022-10-23T22:32:02.280Z,99692.25
2022-10-23T22:37:18.841Z,99695.75
2022-10-23T22:39:50.411Z,99690.59
2022-10-23T22:42:18.366Z,99688.06
2022-10-23T22:44:46.235Z,99691.59
2022-10-23T22:47:15.425Z,99690.78
2022-10-23T22:49:43.209Z,99690.78
2022-10-23T22:52:11.033Z,99682.94
2022-10-23T22:54:39.770Z,99686.44
2022-10-23T22:57:07.632Z,99683.00
2022-10-23T22:59:35.692Z,99674.34
2022-10-23T23:02:03.976Z,99676.94
2022-10-23T23:04:37.839Z,99673.56
2022-10-23T23:07:08.867Z,99676.97
2022-10-23T23:09:39.114Z,99670.03
2022-10-23T23:12:10.217Z,99673.50
2022-10-23T23:14:39.970Z,99670.88
2022-10-23T23:17:09.752Z,99676.94
2022-10-23T23:19:39.538Z,99671.69
2022-10-23T23:22:08.067Z,99674.34
2022-10-23T23:24:36.126Z,99678.75
2022-10-23T23:27:04.245Z,99680.50
2022-10-23T23:29:32.237Z,99677.06
2022-10-23T23:32:00.389Z,99674.50
2022-10-23T23:34:30.375Z,99677.06
2022-10-23T23:36:59.612Z,99676.25
2022-10-23T23:39:28.531Z,99673.72
2022-10-23T23:41:56.536Z,99672.84
2022-10-23T23:44:24.496Z,99675.50
2022-10-23T23:46:53.045Z,99680.69
2022-10-23T23:49:20.890Z,99672.00
2022-10-23T23:51:48.878Z,99672.00
2022-10-23T23:54:18.287Z,99671.97
2022-10-23T23:56:46.064Z,99671.97
2022-10-23T23:59:14.911Z,99663.28
